sensor_id;sensor_type;location;lat;lon;timestamp;P1;durP1;ratioP1;P2;durP2;ratioP2
20653;SDS011;21083;50.898;4.902;2022-12-29T00:01:37;2.70;;;1.05;;
20653;SDS011;21083;50.898;4.902;2022-12-29T00:04:04;3.20;;;1.10;;
20653;SDS011;21083;50.898;4.902;2022-12-29T00:06:32;3.75;;;1.23;;
20653;SDS011;21083;50.898;4.902;2022-12-29T00:08:59;5.78;;;1.08;;
20653;SDS011;21083;50.898;4.902;2022-12-29T00:11:26;3.30;;;0.90;;
20653;SDS011;21083;50.898;4.902;2022-12-29T00:13:53;2.33;;;0.90;;
20653;SDS011;21083;50.898;4.902;2022-12-29T00:16:40;2.42;;;1.13;;
20653;SDS011;21083;50.898;4.902;2022-12-29T00:19:07;2.33;;;0.75;;
20653;SDS011;21083;50.898;4.902;2022-12-29T00:21:55;2.22;;;0.80;;
20653;SDS011;21083;50.898;4.902;2022-12-29T00:24:39;5.68;;;0.90;;
20653;SDS011;21083;50.898;4.902;2022-12-29T00:27:25;3.28;;;0.73;;
20653;SDS011;21083;50.898;4.902;2022-12-29T00:30:11;5.35;;;0.95;;
20653;SDS011;21083;50.898;4.902;2022-12-29T00:32:58;2.15;;;0.93;;
20653;SDS011;21083;50.898;4.902;2022-12-29T00:35:58;3.75;;;0.98;;
20653;SDS011;21083;50.898;4.902;2022-12-29T00:38:28;3.38;;;0.73;;
20653;SDS011;21083;50.898;4.902;2022-12-29T00:41:13;3.05;;;0.80;;
20653;SDS011;21083;50.898;4.902;2022-12-29T00:43:57;4.68;;;0.88;;
20653;SDS011;21083;50.898;4.902;2022-12-29T00:46:35;3.75;;;0.90;;
20653;SDS011;21083;50.898;4.902;2022-12-29T00:49:05;3.38;;;0.80;;
20653;SDS011;21083;50.898;4.902;2022-12-29T00:51:50;1.77;;;0.73;;
20653;SDS011;21083;50.898;4.902;2022-12-29T00:54:17;4.93;;;0.90;;
20653;SDS011;21083;50.898;4.902;2022-12-29T00:56:45;4.30;;;0.90;;
20653;SDS011;21083;50.898;4.902;2022-12-29T00:59:12;2.90;;;0.80;;
20653;SDS011;21083;50.898;4.902;2022-12-29T01:01:40;4.80;;;1.02;;
20653;SDS011;21083;50.898;4.902;2022-12-29T01:04:09;2.92;;;0.80;;
20653;SDS011;21083;50.898;4.902;2022-12-29T01:06:37;4.43;;;0.70;;
20653;SDS011;21083;50.898;4.902;2022-12-29T01:09:05;6.68;;;0.80;;
20653;SDS011;21083;50.898;4.902;2022-12-29T01:11:51;6.15;;;0.80;;
20653;SDS011;21083;50.898;4.902;2022-12-29T01:14:18;2.47;;;0.80;;
20653;SDS011;21083;50.898;4.902;2022-12-29T01:16:46;3.55;;;0.73;;
20653;SDS011;21083;50.898;4.902;2022-12-29T01:19:14;3.78;;;0.82;;
20653;SDS011;21083;50.898;4.902;2022-12-29T01:21:42;3.80;;;0.80;;
20653;SDS011;21083;50.898;4.902;2022-12-29T01:24:09;5.18;;;0.75;;
20653;SDS011;21083;50.898;4.902;2022-12-29T01:26:35;5.68;;;1.15;;
20653;SDS011;21083;50.898;4.902;2022-12-29T01:29:02;7.00;;;0.90;;
20653;SDS011;21083;50.898;4.902;2022-12-29T01:31:29;6.28;;;1.10;;
20653;SDS011;21083;50.898;4.902;2022-12-29T01:33:56;3.70;;;0.90;;
20653;SDS011;21083;50.898;4.902;2022-12-29T01:36:24;4.18;;;1.13;;
20653;SDS011;21083;50.898;4.902;2022-12-29T01:38:51;7.35;;;1.05;;
20653;SDS011;21083;50.898;4.902;2022-12-29T01:41:18;6.13;;;1.17;;
20653;SDS011;21083;50.898;4.902;2022-12-29T01:43:46;8.15;;;1.27;;
20653;SDS011;21083;50.898;4.902;2022-12-29T01:46:24;7.80;;;1.00;;
20653;SDS011;21083;50.898;4.902;2022-12-29T01:48:53;3.95;;;0.80;;
20653;SDS011;21083;50.898;4.902;2022-12-29T01:51:26;6.50;;;1.05;;
20653;SDS011;21083;50.898;4.902;2022-12-29T01:53:54;7.60;;;1.30;;
20653;SDS011;21083;50.898;4.902;2022-12-29T01:56:23;6.85;;;1.02;;
20653;SDS011;21083;50.898;4.902;2022-12-29T01:58:52;3.55;;;0.90;;
20653;SDS011;21083;50.898;4.902;2022-12-29T02:01:28;3.60;;;1.15;;
20653;SDS011;21083;50.898;4.902;2022-12-29T02:03:55;5.93;;;1.30;;
20653;SDS011;21083;50.898;4.902;2022-12-29T02:06:22;4.32;;;0.90;;
20653;SDS011;21083;50.898;4.902;2022-12-29T02:08:55;5.38;;;1.30;;
20653;SDS011;21083;50.898;4.902;2022-12-29T02:11:23;4.05;;;0.93;;
20653;SDS011;21083;50.898;4.902;2022-12-29T02:13:52;7.47;;;1.27;;
20653;SDS011;21083;50.898;4.902;2022-12-29T02:16:27;5.45;;;1.30;;
20653;SDS011;21083;50.898;4.902;2022-12-29T02:19:30;8.68;;;1.42;;
20653;SDS011;21083;50.898;4.902;2022-12-29T02:22:20;5.18;;;0.95;;
20653;SDS011;21083;50.898;4.902;2022-12-29T02:31:08;3.20;;;0.77;;
20653;SDS011;21083;50.898;4.902;2022-12-29T02:33:47;3.28;;;0.70;;
20653;SDS011;21083;50.898;4.902;2022-12-29T02:36:25;2.70;;;0.85;;
20653;SDS011;21083;50.898;4.902;2022-12-29T02:38:59;4.00;;;0.85;;
20653;SDS011;21083;50.898;4.902;2022-12-29T02:41:38;3.10;;;0.82;;
20653;SDS011;21083;50.898;4.902;2022-12-29T02:44:12;2.47;;;0.65;;
20653;SDS011;21083;50.898;4.902;2022-12-29T02:46:48;2.88;;;0.70;;
20653;SDS011;21083;50.898;4.902;2022-12-29T02:49:19;4.60;;;1.15;;
20653;SDS011;21083;50.898;4.902;2022-12-29T02:51:54;5.28;;;0.60;;
20653;SDS011;21083;50.898;4.902;2022-12-29T02:54:26;3.15;;;0.80;;
20653;SDS011;21083;50.898;4.902;2022-12-29T02:57:09;5.63;;;0.90;;
20653;SDS011;21083;50.898;4.902;2022-12-29T02:59:38;2.45;;;0.85;;
20653;SDS011;21083;50.898;4.902;2022-12-29T03:02:24;3.75;;;0.75;;
20653;SDS011;21083;50.898;4.902;2022-12-29T03:05:04;2.55;;;0.80;;
20653;SDS011;21083;50.898;4.902;2022-12-29T03:07:43;2.85;;;0.90;;
20653;SDS011;21083;50.898;4.902;2022-12-29T03:10:19;1.63;;;0.55;;
20653;SDS011;21083;50.898;4.902;2022-12-29T03:12:56;2.30;;;0.82;;
20653;SDS011;21083;50.898;4.902;2022-12-29T03:15:49;1.67;;;0.70;;
20653;SDS011;21083;50.898;4.902;2022-12-29T03:18:32;3.42;;;0.70;;
20653;SDS011;21083;50.898;4.902;2022-12-29T03:21:08;1.85;;;0.70;;
20653;SDS011;21083;50.898;4.902;2022-12-29T03:23:38;5.47;;;0.70;;
20653;SDS011;21083;50.898;4.902;2022-12-29T03:26:08;3.15;;;0.93;;
20653;SDS011;21083;50.898;4.902;2022-12-29T03:28:38;3.35;;;0.90;;
20653;SDS011;21083;50.898;4.902;2022-12-29T03:31:08;4.63;;;0.80;;
20653;SDS011;21083;50.898;4.902;2022-12-29T03:33:37;2.05;;;0.60;;
20653;SDS011;21083;50.898;4.902;2022-12-29T03:36:06;6.07;;;1.00;;
20653;SDS011;21083;50.898;4.902;2022-12-29T03:38:37;6.13;;;0.90;;
20653;SDS011;21083;50.898;4.902;2022-12-29T03:41:11;2.67;;;0.85;;
20653;SDS011;21083;50.898;4.902;2022-12-29T03:43:41;3.45;;;0.77;;
20653;SDS011;21083;50.898;4.902;2022-12-29T03:46:08;2.17;;;0.60;;
20653;SDS011;21083;50.898;4.902;2022-12-29T03:48:35;5.00;;;1.10;;
20653;SDS011;21083;50.898;4.902;2022-12-29T03:51:03;3.78;;;0.60;;
20653;SDS011;21083;50.898;4.902;2022-12-29T03:53:31;3.67;;;0.60;;
20653;SDS011;21083;50.898;4.902;2022-12-29T03:55:57;2.78;;;0.65;;
20653;SDS011;21083;50.898;4.902;2022-12-29T03:58:24;1.33;;;0.50;;
20653;SDS011;21083;50.898;4.902;2022-12-29T04:00:51;6.07;;;0.85;;
20653;SDS011;21083;50.898;4.902;2022-12-29T04:03:18;6.10;;;1.05;;
20653;SDS011;21083;50.898;4.902;2022-12-29T04:05:45;5.93;;;1.05;;
20653;SDS011;21083;50.898;4.902;2022-12-29T04:08:13;6.57;;;0.77;;
20653;SDS011;21083;50.898;4.902;2022-12-29T04:10:40;5.28;;;0.75;;
20653;SDS011;21083;50.898;4.902;2022-12-29T04:13:07;2.78;;;0.60;;
20653;SDS011;21083;50.898;4.902;2022-12-29T04:15:34;4.03;;;0.80;;
20653;SDS011;21083;50.898;4.902;2022-12-29T04:18:02;5.05;;;0.70;;
20653;SDS011;21083;50.898;4.902;2022-12-29T04:20:29;6.68;;;0.82;;
20653;SDS011;21083;50.898;4.902;2022-12-29T04:23:15;6.10;;;1.13;;
20653;SDS011;21083;50.898;4.902;2022-12-29T04:25:44;4.40;;;0.90;;
20653;SDS011;21083;50.898;4.902;2022-12-29T04:28:12;4.03;;;0.60;;
20653;SDS011;21083;50.898;4.902;2022-12-29T04:30:38;2.90;;;0.55;;
20653;SDS011;21083;50.898;4.902;2022-12-29T04:33:06;3.70;;;0.80;;
20653;SDS011;21083;50.898;4.902;2022-12-29T04:35:33;5.68;;;0.70;;
20653;SDS011;21083;50.898;4.902;2022-12-29T04:38:00;3.70;;;0.47;;
20653;SDS011;21083;50.898;4.902;2022-12-29T04:40:29;2.85;;;0.70;;
20653;SDS011;21083;50.898;4.902;2022-12-29T04:42:56;11.43;;;0.90;;
20653;SDS011;21083;50.898;4.902;2022-12-29T04:45:22;3.05;;;0.50;;
20653;SDS011;21083;50.898;4.902;2022-12-29T04:47:50;4.05;;;0.80;;
20653;SDS011;21083;50.898;4.902;2022-12-29T04:50:16;4.18;;;0.57;;
20653;SDS011;21083;50.898;4.902;2022-12-29T04:52:43;3.15;;;0.45;;
20653;SDS011;21083;50.898;4.902;2022-12-29T04:55:10;6.97;;;0.98;;
20653;SDS011;21083;50.898;4.902;2022-12-29T04:57:39;1.55;;;0.73;;
20653;SDS011;21083;50.898;4.902;2022-12-29T05:00:06;5.47;;;0.70;;
20653;SDS011;21083;50.898;4.902;2022-12-29T05:02:35;6.63;;;1.00;;
20653;SDS011;21083;50.898;4.902;2022-12-29T05:05:02;7.55;;;1.08;;
20653;SDS011;21083;50.898;4.902;2022-12-29T05:07:29;7.00;;;0.98;;
20653;SDS011;21083;50.898;4.902;2022-12-29T05:09:58;6.35;;;0.70;;
20653;SDS011;21083;50.898;4.902;2022-12-29T05:12:25;5.55;;;0.70;;
20653;SDS011;21083;50.898;4.902;2022-12-29T05:14:56;3.40;;;0.68;;
20653;SDS011;21083;50.898;4.902;2022-12-29T05:17:23;9.15;;;1.58;;
20653;SDS011;21083;50.898;4.902;2022-12-29T05:19:50;4.70;;;1.42;;
20653;SDS011;21083;50.898;4.902;2022-12-29T05:22:17;8.38;;;1.10;;
20653;SDS011;21083;50.898;4.902;2022-12-29T05:24:44;4.43;;;0.80;;
20653;SDS011;21083;50.898;4.902;2022-12-29T05:27:11;10.45;;;1.00;;
20653;SDS011;21083;50.898;4.902;2022-12-29T05:29:38;7.10;;;0.95;;
20653;SDS011;21083;50.898;4.902;2022-12-29T05:32:06;9.57;;;1.00;;
20653;SDS011;21083;50.898;4.902;2022-12-29T05:34:33;4.07;;;0.93;;
20653;SDS011;21083;50.898;4.902;2022-12-29T05:37:00;10.82;;;1.20;;
20653;SDS011;21083;50.898;4.902;2022-12-29T05:39:27;13.43;;;1.10;;
20653;SDS011;21083;50.898;4.902;2022-12-29T05:41:54;3.40;;;0.93;;
20653;SDS011;21083;50.898;4.902;2022-12-29T05:44:21;7.28;;;1.13;;
20653;SDS011;21083;50.898;4.902;2022-12-29T05:46:48;9.85;;;0.88;;
20653;SDS011;21083;50.898;4.902;2022-12-29T05:49:16;8.85;;;1.25;;
20653;SDS011;21083;50.898;4.902;2022-12-29T05:51:43;7.32;;;1.38;;
20653;SDS011;21083;50.898;4.902;2022-12-29T05:54:10;6.28;;;1.00;;
20653;SDS011;21083;50.898;4.902;2022-12-29T05:56:38;11.43;;;1.45;;
20653;SDS011;21083;50.898;4.902;2022-12-29T05:59:05;7.78;;;1.00;;
20653;SDS011;21083;50.898;4.902;2022-12-29T06:01:32;12.13;;;1.02;;
20653;SDS011;21083;50.898;4.902;2022-12-29T06:03:59;11.38;;;1.83;;
20653;SDS011;21083;50.898;4.902;2022-12-29T06:06:28;7.53;;;1.63;;
20653;SDS011;21083;50.898;4.902;2022-12-29T06:08:55;7.80;;;1.10;;
20653;SDS011;21083;50.898;4.902;2022-12-29T06:11:21;8.63;;;1.17;;
20653;SDS011;21083;50.898;4.902;2022-12-29T06:13:48;3.63;;;0.85;;
20653;SDS011;21083;50.898;4.902;2022-12-29T06:16:15;10.95;;;1.45;;
20653;SDS011;21083;50.898;4.902;2022-12-29T06:18:42;9.48;;;1.00;;
20653;SDS011;21083;50.898;4.902;2022-12-29T06:21:09;8.73;;;1.17;;
20653;SDS011;21083;50.898;4.902;2022-12-29T06:23:37;6.43;;;0.82;;
20653;SDS011;21083;50.898;4.902;2022-12-29T06:26:04;7.43;;;1.25;;
20653;SDS011;21083;50.898;4.902;2022-12-29T06:28:31;8.02;;;1.13;;
20653;SDS011;21083;50.898;4.902;2022-12-29T06:30:58;10.75;;;1.65;;
20653;SDS011;21083;50.898;4.902;2022-12-29T06:33:27;9.02;;;1.00;;
20653;SDS011;21083;50.898;4.902;2022-12-29T06:35:54;7.38;;;0.90;;
20653;SDS011;21083;50.898;4.902;2022-12-29T06:38:20;6.47;;;1.08;;
20653;SDS011;21083;50.898;4.902;2022-12-29T06:40:49;8.70;;;1.10;;
20653;SDS011;21083;50.898;4.902;2022-12-29T06:43:15;15.93;;;1.45;;
20653;SDS011;21083;50.898;4.902;2022-12-29T06:45:42;11.27;;;1.90;;
20653;SDS011;21083;50.898;4.902;2022-12-29T06:48:09;9.70;;;1.50;;
20653;SDS011;21083;50.898;4.902;2022-12-29T06:50:37;14.20;;;2.13;;
20653;SDS011;21083;50.898;4.902;2022-12-29T06:53:04;7.55;;;1.10;;
20653;SDS011;21083;50.898;4.902;2022-12-29T06:55:31;6.38;;;1.15;;
20653;SDS011;21083;50.898;4.902;2022-12-29T06:57:59;10.68;;;1.30;;
20653;SDS011;21083;50.898;4.902;2022-12-29T07:00:27;5.25;;;0.80;;
20653;SDS011;21083;50.898;4.902;2022-12-29T07:02:54;8.82;;;1.05;;
20653;SDS011;21083;50.898;4.902;2022-12-29T07:05:21;9.60;;;1.20;;
20653;SDS011;21083;50.898;4.902;2022-12-29T07:07:48;10.82;;;1.63;;
20653;SDS011;21083;50.898;4.902;2022-12-29T07:10:15;12.50;;;1.58;;
20653;SDS011;21083;50.898;4.902;2022-12-29T07:12:42;9.20;;;2.33;;
20653;SDS011;21083;50.898;4.902;2022-12-29T07:15:11;6.97;;;1.30;;
20653;SDS011;21083;50.898;4.902;2022-12-29T07:17:38;8.15;;;1.30;;
20653;SDS011;21083;50.898;4.902;2022-12-29T07:20:06;5.90;;;1.33;;
20653;SDS011;21083;50.898;4.902;2022-12-29T07:22:33;14.70;;;1.42;;
20653;SDS011;21083;50.898;4.902;2022-12-29T07:25:01;6.32;;;1.13;;
20653;SDS011;21083;50.898;4.902;2022-12-29T07:27:28;12.75;;;1.38;;
20653;SDS011;21083;50.898;4.902;2022-12-29T07:29:55;8.20;;;1.00;;
20653;SDS011;21083;50.898;4.902;2022-12-29T07:32:24;9.07;;;1.20;;
20653;SDS011;21083;50.898;4.902;2022-12-29T07:34:51;8.75;;;1.23;;
20653;SDS011;21083;50.898;4.902;2022-12-29T07:37:17;15.95;;;1.52;;
20653;SDS011;21083;50.898;4.902;2022-12-29T07:39:45;9.55;;;1.02;;
20653;SDS011;21083;50.898;4.902;2022-12-29T07:42:12;8.57;;;1.27;;
20653;SDS011;21083;50.898;4.902;2022-12-29T07:44:39;12.15;;;2.00;;
20653;SDS011;21083;50.898;4.902;2022-12-29T07:47:05;5.93;;;1.30;;
20653;SDS011;21083;50.898;4.902;2022-12-29T07:49:34;8.93;;;1.58;;
20653;SDS011;21083;50.898;4.902;2022-12-29T07:52:01;9.65;;;1.25;;
20653;SDS011;21083;50.898;4.902;2022-12-29T07:54:27;8.57;;;1.35;;
20653;SDS011;21083;50.898;4.902;2022-12-29T07:56:54;8.45;;;1.52;;
20653;SDS011;21083;50.898;4.902;2022-12-29T07:59:22;7.32;;;1.30;;
20653;SDS011;21083;50.898;4.902;2022-12-29T08:01:49;8.45;;;1.60;;
20653;SDS011;21083;50.898;4.902;2022-12-29T08:04:16;10.30;;;1.40;;
20653;SDS011;21083;50.898;4.902;2022-12-29T08:06:44;10.60;;;1.23;;
20653;SDS011;21083;50.898;4.902;2022-12-29T08:09:11;6.47;;;1.08;;
20653;SDS011;21083;50.898;4.902;2022-12-29T08:11:38;10.23;;;1.92;;
20653;SDS011;21083;50.898;4.902;2022-12-29T08:14:05;12.63;;;1.50;;
20653;SDS011;21083;50.898;4.902;2022-12-29T08:16:32;10.68;;;1.35;;
20653;SDS011;21083;50.898;4.902;2022-12-29T08:18:59;10.23;;;1.33;;
20653;SDS011;21083;50.898;4.902;2022-12-29T08:21:26;10.07;;;1.80;;
20653;SDS011;21083;50.898;4.902;2022-12-29T08:23:55;8.52;;;1.10;;
20653;SDS011;21083;50.898;4.902;2022-12-29T08:26:22;10.15;;;1.42;;
20653;SDS011;21083;50.898;4.902;2022-12-29T08:28:49;12.85;;;1.27;;
20653;SDS011;21083;50.898;4.902;2022-12-29T08:31:18;11.25;;;1.60;;
20653;SDS011;21083;50.898;4.902;2022-12-29T08:33:45;9.63;;;1.45;;
20653;SDS011;21083;50.898;4.902;2022-12-29T08:36:12;11.15;;;1.38;;
20653;SDS011;21083;50.898;4.902;2022-12-29T08:38:39;10.40;;;2.72;;
20653;SDS011;21083;50.898;4.902;2022-12-29T08:41:07;12.40;;;1.27;;
20653;SDS011;21083;50.898;4.902;2022-12-29T08:43:34;12.38;;;2.25;;
20653;SDS011;21083;50.898;4.902;2022-12-29T08:46:01;9.35;;;1.20;;
20653;SDS011;21083;50.898;4.902;2022-12-29T08:48:27;9.55;;;1.60;;
20653;SDS011;21083;50.898;4.902;2022-12-29T08:50:54;13.15;;;1.83;;
20653;SDS011;21083;50.898;4.902;2022-12-29T08:53:21;14.30;;;1.60;;
20653;SDS011;21083;50.898;4.902;2022-12-29T08:55:54;12.18;;;1.40;;
20653;SDS011;21083;50.898;4.902;2022-12-29T08:58:24;9.45;;;1.63;;
20653;SDS011;21083;50.898;4.902;2022-12-29T09:00:52;15.40;;;1.80;;
20653;SDS011;21083;50.898;4.902;2022-12-29T09:03:19;12.55;;;1.65;;
20653;SDS011;21083;50.898;4.902;2022-12-29T09:05:47;8.77;;;2.17;;
20653;SDS011;21083;50.898;4.902;2022-12-29T09:08:14;14.23;;;1.45;;
20653;SDS011;21083;50.898;4.902;2022-12-29T09:10:41;14.57;;;1.60;;
20653;SDS011;21083;50.898;4.902;2022-12-29T09:13:08;10.90;;;1.88;;
20653;SDS011;21083;50.898;4.902;2022-12-29T09:15:37;11.40;;;1.58;;
20653;SDS011;21083;50.898;4.902;2022-12-29T09:18:06;9.23;;;1.17;;
20653;SDS011;21083;50.898;4.902;2022-12-29T09:20:33;15.93;;;2.15;;
20653;SDS011;21083;50.898;4.902;2022-12-29T09:23:00;9.07;;;2.83;;
20653;SDS011;21083;50.898;4.902;2022-12-29T09:25:28;13.65;;;1.65;;
20653;SDS011;21083;50.898;4.902;2022-12-29T09:27:55;9.38;;;1.60;;
20653;SDS011;21083;50.898;4.902;2022-12-29T09:30:22;7.40;;;1.42;;
20653;SDS011;21083;50.898;4.902;2022-12-29T09:32:51;14.73;;;2.40;;
20653;SDS011;21083;50.898;4.902;2022-12-29T09:35:18;12.80;;;2.25;;
20653;SDS011;21083;50.898;4.902;2022-12-29T09:37:45;15.63;;;2.30;;
20653;SDS011;21083;50.898;4.902;2022-12-29T09:40:18;12.75;;;1.75;;
20653;SDS011;21083;50.898;4.902;2022-12-29T09:42:55;13.43;;;2.00;;
20653;SDS011;21083;50.898;4.902;2022-12-29T09:45:36;9.38;;;1.40;;
20653;SDS011;21083;50.898;4.902;2022-12-29T09:48:11;16.20;;;2.65;;
20653;SDS011;21083;50.898;4.902;2022-12-29T09:50:44;14.85;;;1.65;;
20653;SDS011;21083;50.898;4.902;2022-12-29T09:53:17;13.25;;;2.63;;
20653;SDS011;21083;50.898;4.902;2022-12-29T09:55:48;17.58;;;2.00;;
20653;SDS011;21083;50.898;4.902;2022-12-29T09:58:17;9.90;;;1.40;;
20653;SDS011;21083;50.898;4.902;2022-12-29T10:00:50;15.93;;;1.83;;
20653;SDS011;21083;50.898;4.902;2022-12-29T10:03:24;13.38;;;1.80;;
20653;SDS011;21083;50.898;4.902;2022-12-29T10:06:06;15.48;;;2.97;;
20653;SDS011;21083;50.898;4.902;2022-12-29T10:08:39;6.85;;;1.83;;
20653;SDS011;21083;50.898;4.902;2022-12-29T10:11:14;14.18;;;2.17;;
20653;SDS011;21083;50.898;4.902;2022-12-29T10:13:54;10.95;;;1.77;;
20653;SDS011;21083;50.898;4.902;2022-12-29T10:16:32;10.07;;;1.27;;
20653;SDS011;21083;50.898;4.902;2022-12-29T10:19:19;10.23;;;2.20;;
20653;SDS011;21083;50.898;4.902;2022-12-29T10:22:02;15.23;;;1.92;;
20653;SDS011;21083;50.898;4.902;2022-12-29T10:24:37;10.00;;;1.48;;
20653;SDS011;21083;50.898;4.902;2022-12-29T10:27:07;7.15;;;1.38;;
20653;SDS011;21083;50.898;4.902;2022-12-29T10:29:38;15.80;;;2.17;;
20653;SDS011;21083;50.898;4.902;2022-12-29T10:32:09;13.38;;;1.45;;
20653;SDS011;21083;50.898;4.902;2022-12-29T10:34:49;8.73;;;1.48;;
20653;SDS011;21083;50.898;4.902;2022-12-29T10:37:21;19.95;;;2.47;;
20653;SDS011;21083;50.898;4.902;2022-12-29T10:39:55;17.88;;;1.75;;
20653;SDS011;21083;50.898;4.902;2022-12-29T10:42:25;16.30;;;1.90;;
20653;SDS011;21083;50.898;4.902;2022-12-29T10:44:53;14.00;;;2.05;;
20653;SDS011;21083;50.898;4.902;2022-12-29T10:47:23;18.65;;;2.33;;
20653;SDS011;21083;50.898;4.902;2022-12-29T10:49:55;9.73;;;1.70;;
20653;SDS011;21083;50.898;4.902;2022-12-29T10:52:25;12.00;;;1.98;;
20653;SDS011;21083;50.898;4.902;2022-12-29T10:54:55;13.43;;;1.70;;
20653;SDS011;21083;50.898;4.902;2022-12-29T10:57:26;10.85;;;1.67;;
20653;SDS011;21083;50.898;4.902;2022-12-29T10:59:55;14.25;;;3.15;;
20653;SDS011;21083;50.898;4.902;2022-12-29T11:02:35;15.55;;;2.58;;
20653;SDS011;21083;50.898;4.902;2022-12-29T11:05:17;12.80;;;1.50;;
20653;SDS011;21083;50.898;4.902;2022-12-29T11:07:48;16.80;;;2.33;;
20653;SDS011;21083;50.898;4.902;2022-12-29T11:10:20;11.35;;;1.60;;
20653;SDS011;21083;50.898;4.902;2022-12-29T11:12:56;14.18;;;2.10;;
20653;SDS011;21083;50.898;4.902;2022-12-29T11:15:24;9.68;;;1.70;;
20653;SDS011;21083;50.898;4.902;2022-12-29T11:17:52;8.50;;;1.63;;
20653;SDS011;21083;50.898;4.902;2022-12-29T11:20:30;15.45;;;1.90;;
20653;SDS011;21083;50.898;4.902;2022-12-29T11:23:00;8.88;;;1.58;;
20653;SDS011;21083;50.898;4.902;2022-12-29T11:25:28;11.68;;;2.17;;
20653;SDS011;21083;50.898;4.902;2022-12-29T11:27:55;13.88;;;2.00;;
20653;SDS011;21083;50.898;4.902;2022-12-29T11:30:24;17.45;;;2.22;;
20653;SDS011;21083;50.898;4.902;2022-12-29T11:32:52;11.10;;;2.30;;
20653;SDS011;21083;50.898;4.902;2022-12-29T11:35:30;15.25;;;1.80;;
20653;SDS011;21083;50.898;4.902;2022-12-29T11:37:59;12.20;;;1.73;;
20653;SDS011;21083;50.898;4.902;2022-12-29T11:40:27;9.93;;;2.17;;
20653;SDS011;21083;50.898;4.902;2022-12-29T11:42:55;13.95;;;1.77;;
20653;SDS011;21083;50.898;4.902;2022-12-29T11:45:25;18.92;;;2.30;;
20653;SDS011;21083;50.898;4.902;2022-12-29T11:47:55;14.40;;;1.98;;
20653;SDS011;21083;50.898;4.902;2022-12-29T11:50:25;12.45;;;1.38;;
20653;SDS011;21083;50.898;4.902;2022-12-29T11:52:59;18.20;;;1.85;;
20653;SDS011;21083;50.898;4.902;2022-12-29T11:55:29;12.60;;;1.98;;
20653;SDS011;21083;50.898;4.902;2022-12-29T11:57:57;15.93;;;2.08;;
20653;SDS011;21083;50.898;4.902;2022-12-29T12:00:28;9.32;;;1.20;;
20653;SDS011;21083;50.898;4.902;2022-12-29T12:02:57;10.75;;;1.60;;
20653;SDS011;21083;50.898;4.902;2022-12-29T12:05:31;15.32;;;1.95;;
20653;SDS011;21083;50.898;4.902;2022-12-29T12:08:11;9.48;;;1.23;;
20653;SDS011;21083;50.898;4.902;2022-12-29T12:10:43;16.58;;;2.20;;
20653;SDS011;21083;50.898;4.902;2022-12-29T12:13:17;7.28;;;1.33;;
20653;SDS011;21083;50.898;4.902;2022-12-29T12:15:50;12.10;;;1.73;;
20653;SDS011;21083;50.898;4.902;2022-12-29T12:18:25;8.68;;;1.50;;
20653;SDS011;21083;50.898;4.902;2022-12-29T12:20:58;9.50;;;2.00;;
20653;SDS011;21083;50.898;4.902;2022-12-29T12:23:40;13.52;;;1.90;;
20653;SDS011;21083;50.898;4.902;2022-12-29T12:26:18;9.75;;;1.50;;
20653;SDS011;21083;50.898;4.902;2022-12-29T12:28:48;10.82;;;1.42;;
20653;SDS011;21083;50.898;4.902;2022-12-29T12:31:26;16.15;;;2.33;;
20653;SDS011;21083;50.898;4.902;2022-12-29T12:34:01;13.85;;;1.85;;
20653;SDS011;21083;50.898;4.902;2022-12-29T12:36:37;12.63;;;2.67;;
20653;SDS011;21083;50.898;4.902;2022-12-29T12:39:27;10.50;;;1.77;;
20653;SDS011;21083;50.898;4.902;2022-12-29T12:42:06;12.25;;;1.63;;
20653;SDS011;21083;50.898;4.902;2022-12-29T12:44:46;9.10;;;1.70;;
20653;SDS011;21083;50.898;4.902;2022-12-29T12:47:30;17.15;;;2.00;;
20653;SDS011;21083;50.898;4.902;2022-12-29T12:53:03;14.32;;;1.50;;
20653;SDS011;21083;50.898;4.902;2022-12-29T12:55:56;7.50;;;1.58;;
20653;SDS011;21083;50.898;4.902;2022-12-29T12:58:33;13.43;;;1.75;;
20653;SDS011;21083;50.898;4.902;2022-12-29T13:01:11;13.68;;;1.75;;
20653;SDS011;21083;50.898;4.902;2022-12-29T13:03:45;7.82;;;1.30;;
20653;SDS011;21083;50.898;4.902;2022-12-29T13:06:22;12.30;;;1.88;;
20653;SDS011;21083;50.898;4.902;2022-12-29T13:09:00;12.23;;;1.40;;
20653;SDS011;21083;50.898;4.902;2022-12-29T13:11:42;12.30;;;2.45;;
20653;SDS011;21083;50.898;4.902;2022-12-29T13:14:21;11.30;;;1.33;;
20653;SDS011;21083;50.898;4.902;2022-12-29T13:16:59;11.00;;;2.30;;
20653;SDS011;21083;50.898;4.902;2022-12-29T13:19:34;19.15;;;2.80;;
20653;SDS011;21083;50.898;4.902;2022-12-29T13:22:06;14.35;;;2.25;;
20653;SDS011;21083;50.898;4.902;2022-12-29T13:24:45;10.70;;;1.70;;
20653;SDS011;21083;50.898;4.902;2022-12-29T13:27:23;10.20;;;1.48;;
20653;SDS011;21083;50.898;4.902;2022-12-29T13:29:58;8.57;;;1.48;;
20653;SDS011;21083;50.898;4.902;2022-12-29T13:32:32;14.38;;;2.17;;
20653;SDS011;21083;50.898;4.902;2022-12-29T13:35:11;12.35;;;1.80;;
20653;SDS011;21083;50.898;4.902;2022-12-29T13:37:50;9.07;;;1.45;;
20653;SDS011;21083;50.898;4.902;2022-12-29T13:40:21;15.13;;;1.77;;
20653;SDS011;21083;50.898;4.902;2022-12-29T13:42:52;14.98;;;2.83;;
20653;SDS011;21083;50.898;4.902;2022-12-29T13:45:21;11.95;;;1.30;;
20653;SDS011;21083;50.898;4.902;2022-12-29T13:47:52;12.65;;;1.67;;
20653;SDS011;21083;50.898;4.902;2022-12-29T13:50:24;10.77;;;1.63;;
20653;SDS011;21083;50.898;4.902;2022-12-29T13:52:55;9.35;;;1.65;;
20653;SDS011;21083;50.898;4.902;2022-12-29T13:55:32;12.25;;;2.38;;
20653;SDS011;21083;50.898;4.902;2022-12-29T13:58:05;10.50;;;1.65;;
20653;SDS011;21083;50.898;4.902;2022-12-29T14:00:43;14.05;;;2.22;;
20653;SDS011;21083;50.898;4.902;2022-12-29T14:03:23;14.18;;;1.70;;
20653;SDS011;21083;50.898;4.902;2022-12-29T14:08:57;10.35;;;1.75;;
20653;SDS011;21083;50.898;4.902;2022-12-29T14:11:28;18.88;;;2.55;;
20653;SDS011;21083;50.898;4.902;2022-12-29T14:13:59;14.05;;;2.30;;
20653;SDS011;21083;50.898;4.902;2022-12-29T14:16:38;13.95;;;2.10;;
20653;SDS011;21083;50.898;4.902;2022-12-29T14:19:09;20.23;;;2.42;;
20653;SDS011;21083;50.898;4.902;2022-12-29T14:21:41;7.10;;;1.30;;
20653;SDS011;21083;50.898;4.902;2022-12-29T14:33:14;13.10;;;1.90;;
20653;SDS011;21083;50.898;4.902;2022-12-29T14:35:44;13.18;;;2.00;;
20653;SDS011;21083;50.898;4.902;2022-12-29T14:38:15;21.08;;;2.20;;
20653;SDS011;21083;50.898;4.902;2022-12-29T14:40:45;14.02;;;2.95;;
20653;SDS011;21083;50.898;4.902;2022-12-29T14:43:13;15.52;;;2.05;;
20653;SDS011;21083;50.898;4.902;2022-12-29T14:45:52;10.18;;;1.95;;
20653;SDS011;21083;50.898;4.902;2022-12-29T14:48:28;18.85;;;2.35;;
20653;SDS011;21083;50.898;4.902;2022-12-29T14:51:00;19.42;;;2.50;;
20653;SDS011;21083;50.898;4.902;2022-12-29T14:53:45;20.70;;;3.00;;
20653;SDS011;21083;50.898;4.902;2022-12-29T14:56:14;11.93;;;2.55;;
20653;SDS011;21083;50.898;4.902;2022-12-29T14:58:51;11.65;;;2.03;;
20653;SDS011;21083;50.898;4.902;2022-12-29T15:01:22;20.10;;;2.75;;
20653;SDS011;21083;50.898;4.902;2022-12-29T15:03:54;19.48;;;2.53;;
20653;SDS011;21083;50.898;4.902;2022-12-29T15:06:24;14.68;;;1.95;;
20653;SDS011;21083;50.898;4.902;2022-12-29T15:08:56;18.13;;;2.45;;
20653;SDS011;21083;50.898;4.902;2022-12-29T15:11:31;16.38;;;2.30;;
20653;SDS011;21083;50.898;4.902;2022-12-29T15:16:58;10.95;;;2.47;;
20653;SDS011;21083;50.898;4.902;2022-12-29T15:19:26;13.70;;;2.97;;
20653;SDS011;21083;50.898;4.902;2022-12-29T15:21:54;15.60;;;2.50;;
20653;SDS011;21083;50.898;4.902;2022-12-29T15:24:22;11.93;;;2.03;;
20653;SDS011;21083;50.898;4.902;2022-12-29T15:26:50;12.50;;;2.30;;
20653;SDS011;21083;50.898;4.902;2022-12-29T15:29:28;19.40;;;2.15;;
20653;SDS011;21083;50.898;4.902;2022-12-29T15:32:14;11.85;;;2.03;;